sensor_id;sensor_type;location;lat;lon;timestamp;P1;durP1;ratioP1;P2;durP2;ratioP2
1589;SDS011;788;48.720;9.158;2022-11-20T00:01:18;6.60;;;5.78;;
1589;SDS011;788;48.720;9.158;2022-11-20T00:03:47;5.38;;;4.90;;
1589;SDS011;788;48.720;9.158;2022-11-20T00:06:16;5.97;;;5.47;;
1589;SDS011;788;48.720;9.158;2022-11-20T00:08:45;6.18;;;5.00;;
1589;SDS011;788;48.720;9.158;2022-11-20T00:11:14;4.68;;;4.38;;
1589;SDS011;788;48.720;9.158;2022-11-20T00:13:42;5.50;;;5.10;;
1589;SDS011;788;48.720;9.158;2022-11-20T00:16:11;6.22;;;5.45;;
1589;SDS011;788;48.720;9.158;2022-11-20T00:18:39;5.90;;;5.30;;
1589;SDS011;788;48.720;9.158;2022-11-20T00:21:09;6.53;;;4.85;;
1589;SDS011;788;48.720;9.158;2022-11-20T00:23:46;5.32;;;4.82;;
1589;SDS011;788;48.720;9.158;2022-11-20T00:26:14;6.63;;;5.18;;
1589;SDS011;788;48.720;9.158;2022-11-20T00:28:43;5.22;;;4.43;;
1589;SDS011;788;48.720;9.158;2022-11-20T00:31:15;5.35;;;4.85;;
1589;SDS011;788;48.720;9.158;2022-11-20T00:33:46;6.35;;;5.53;;
1589;SDS011;788;48.720;9.158;2022-11-20T00:36:14;5.55;;;5.05;;
1589;SDS011;788;48.720;9.158;2022-11-20T00:38:42;7.05;;;5.60;;
1589;SDS011;788;48.720;9.158;2022-11-20T00:41:13;5.88;;;5.38;;
1589;SDS011;788;48.720;9.158;2022-11-20T00:43:47;5.63;;;5.10;;
1589;SDS011;788;48.720;9.158;2022-11-20T00:46:15;6.80;;;5.72;;
1589;SDS011;788;48.720;9.158;2022-11-20T00:48:44;5.40;;;4.90;;
1589;SDS011;788;48.720;9.158;2022-11-20T00:51:14;4.90;;;4.50;;
1589;SDS011;788;48.720;9.158;2022-11-20T00:53:42;4.38;;;4.07;;
1589;SDS011;788;48.720;9.158;2022-11-20T00:56:09;7.10;;;4.82;;
1589;SDS011;788;48.720;9.158;2022-11-20T00:58:40;6.68;;;6.07;;
1589;SDS011;788;48.720;9.158;2022-11-20T01:01:09;8.38;;;4.95;;
1589;SDS011;788;48.720;9.158;2022-11-20T01:03:38;5.78;;;5.28;;
1589;SDS011;788;48.720;9.158;2022-11-20T01:06:07;5.50;;;4.97;;
1589;SDS011;788;48.720;9.158;2022-11-20T01:08:37;6.65;;;4.50;;
1589;SDS011;788;48.720;9.158;2022-11-20T01:11:06;5.60;;;4.72;;
1589;SDS011;788;48.720;9.158;2022-11-20T01:13:34;5.50;;;4.70;;
1589;SDS011;788;48.720;9.158;2022-11-20T01:16:08;6.40;;;5.70;;
1589;SDS011;788;48.720;9.158;2022-11-20T01:18:38;7.80;;;4.53;;
1589;SDS011;788;48.720;9.158;2022-11-20T01:21:14;5.47;;;4.93;;
1589;SDS011;788;48.720;9.158;2022-11-20T01:23:43;4.68;;;4.35;;
1589;SDS011;788;48.720;9.158;2022-11-20T01:26:12;5.53;;;5.05;;
1589;SDS011;788;48.720;9.158;2022-11-20T01:28:40;5.60;;;5.10;;
1589;SDS011;788;48.720;9.158;2022-11-20T01:31:13;5.90;;;5.40;;
1589;SDS011;788;48.720;9.158;2022-11-20T01:33:41;8.02;;;7.30;;
1589;SDS011;788;48.720;9.158;2022-11-20T01:36:10;8.15;;;7.35;;
1589;SDS011;788;48.720;9.158;2022-11-20T01:38:39;7.75;;;7.07;;
1589;SDS011;788;48.720;9.158;2022-11-20T01:41:06;7.97;;;7.18;;
1589;SDS011;788;48.720;9.158;2022-11-20T01:43:35;6.05;;;5.55;;
1589;SDS011;788;48.720;9.158;2022-11-20T01:46:04;7.80;;;4.85;;
1589;SDS011;788;48.720;9.158;2022-11-20T01:48:38;4.88;;;4.13;;
1589;SDS011;788;48.720;9.158;2022-11-20T01:51:12;8.25;;;4.20;;
1589;SDS011;788;48.720;9.158;2022-11-20T01:53:45;5.80;;;4.60;;
1589;SDS011;788;48.720;9.158;2022-11-20T01:56:14;5.75;;;4.10;;
1589;SDS011;788;48.720;9.158;2022-11-20T01:58:44;5.28;;;4.90;;
1589;SDS011;788;48.720;9.158;2022-11-20T02:01:18;4.90;;;4.40;;
1589;SDS011;788;48.720;9.158;2022-11-20T02:03:48;6.60;;;4.20;;
1589;SDS011;788;48.720;9.158;2022-11-20T02:06:19;5.47;;;4.78;;
1589;SDS011;788;48.720;9.158;2022-11-20T02:08:50;4.22;;;3.90;;
1589;SDS011;788;48.720;9.158;2022-11-20T02:11:17;4.13;;;3.72;;
1589;SDS011;788;48.720;9.158;2022-11-20T02:13:44;4.65;;;3.35;;
1589;SDS011;788;48.720;9.158;2022-11-20T02:16:15;6.00;;;3.95;;
1589;SDS011;788;48.720;9.158;2022-11-20T02:18:47;4.13;;;3.60;;
1589;SDS011;788;48.720;9.158;2022-11-20T02:21:24;5.05;;;4.28;;
1589;SDS011;788;48.720;9.158;2022-11-20T02:24:01;4.47;;;4.07;;
1589;SDS011;788;48.720;9.158;2022-11-20T02:26:38;5.00;;;4.60;;
1589;SDS011;788;48.720;9.158;2022-11-20T02:29:13;3.90;;;3.53;;
1589;SDS011;788;48.720;9.158;2022-11-20T02:31:42;4.35;;;4.05;;
1589;SDS011;788;48.720;9.158;2022-11-20T02:34:10;4.10;;;3.70;;
1589;SDS011;788;48.720;9.158;2022-11-20T02:39:26;5.97;;;4.55;;
1589;SDS011;788;48.720;9.158;2022-11-20T02:41:54;4.50;;;4.10;;
1589;SDS011;788;48.720;9.158;2022-11-20T02:44:23;5.28;;;4.50;;
1589;SDS011;788;48.720;9.158;2022-11-20T02:46:50;5.40;;;4.35;;
1589;SDS011;788;48.720;9.158;2022-11-20T02:49:17;4.30;;;3.90;;
1589;SDS011;788;48.720;9.158;2022-11-20T02:51:44;5.97;;;5.32;;
1589;SDS011;788;48.720;9.158;2022-11-20T02:54:12;8.60;;;5.22;;
1589;SDS011;788;48.720;9.158;2022-11-20T02:56:42;4.80;;;4.30;;
1589;SDS011;788;48.720;9.158;2022-11-20T02:59:09;5.97;;;5.38;;
1589;SDS011;788;48.720;9.158;2022-11-20T03:01:36;6.13;;;5.53;;
1589;SDS011;788;48.720;9.158;2022-11-20T03:04:04;5.20;;;4.70;;
1589;SDS011;788;48.720;9.158;2022-11-20T03:06:31;6.20;;;5.70;;
1589;SDS011;788;48.720;9.158;2022-11-20T03:08:59;6.47;;;5.90;;
1589;SDS011;788;48.720;9.158;2022-11-20T03:11:29;6.97;;;6.13;;
1589;SDS011;788;48.720;9.158;2022-11-20T03:13:59;5.70;;;5.20;;
1589;SDS011;788;48.720;9.158;2022-11-20T03:16:28;8.43;;;6.30;;
1589;SDS011;788;48.720;9.158;2022-11-20T03:18:59;5.10;;;4.60;;
1589;SDS011;788;48.720;9.158;2022-11-20T03:21:26;7.75;;;6.95;;
1589;SDS011;788;48.720;9.158;2022-11-20T03:23:53;6.72;;;6.13;;
1589;SDS011;788;48.720;9.158;2022-11-20T03:26:22;6.22;;;5.00;;
1589;SDS011;788;48.720;9.158;2022-11-20T03:28:52;5.70;;;5.20;;
1589;SDS011;788;48.720;9.158;2022-11-20T03:31:23;7.13;;;6.63;;
1589;SDS011;788;48.720;9.158;2022-11-20T03:33:51;5.72;;;5.07;;
1589;SDS011;788;48.720;9.158;2022-11-20T03:36:19;8.98;;;5.43;;
1589;SDS011;788;48.720;9.158;2022-11-20T03:38:47;6.07;;;5.53;;
1589;SDS011;788;48.720;9.158;2022-11-20T08:01:05;5.68;;;3.25;;
1589;SDS011;788;48.720;9.158;2022-11-20T08:03:55;3.28;;;3.08;;
1589;SDS011;788;48.720;9.158;2022-11-20T08:30:47;2.95;;;2.58;;
1589;SDS011;788;48.720;9.158;2022-11-20T08:33:14;3.15;;;2.78;;
1589;SDS011;788;48.720;9.158;2022-11-20T08:35:42;3.22;;;3.03;;
1589;SDS011;788;48.720;9.158;2022-11-20T08:38:09;2.65;;;2.45;;
1589;SDS011;788;48.720;9.158;2022-11-20T08:40:36;3.30;;;3.00;;
1589;SDS011;788;48.720;9.158;2022-11-20T08:43:02;3.65;;;3.35;;
1589;SDS011;788;48.720;9.158;2022-11-20T08:45:29;2.28;;;2.03;;
1589;SDS011;788;48.720;9.158;2022-11-20T08:48:00;2.90;;;2.70;;
1589;SDS011;788;48.720;9.158;2022-11-20T08:50:28;2.40;;;2.20;;
1589;SDS011;788;48.720;9.158;2022-11-20T08:53:01;2.33;;;2.22;;
1589;SDS011;788;48.720;9.158;2022-11-20T08:55:28;2.92;;;2.20;;
1589;SDS011;788;48.720;9.158;2022-11-20T08:57:55;2.40;;;2.20;;
1589;SDS011;788;48.720;9.158;2022-11-20T09:00:22;3.90;;;1.90;;
1589;SDS011;788;48.720;9.158;2022-11-20T09:02:49;2.70;;;1.60;;
1589;SDS011;788;48.720;9.158;2022-11-20T09:05:18;2.20;;;2.00;;
1589;SDS011;788;48.720;9.158;2022-11-20T09:07:45;2.05;;;1.90;;
1589;SDS011;788;48.720;9.158;2022-11-20T09:10:11;1.95;;;1.85;;
1589;SDS011;788;48.720;9.158;2022-11-20T09:12:38;2.15;;;1.50;;
1589;SDS011;788;48.720;9.158;2022-11-20T09:15:05;1.52;;;1.40;;
1589;SDS011;788;48.720;9.158;2022-11-20T09:17:33;1.85;;;1.38;;
1589;SDS011;788;48.720;9.158;2022-11-20T09:20:00;1.40;;;1.30;;
1589;SDS011;788;48.720;9.158;2022-11-20T09:22:28;1.55;;;1.45;;
1589;SDS011;788;48.720;9.158;2022-11-20T09:24:55;2.10;;;1.67;;
1589;SDS011;788;48.720;9.158;2022-11-20T09:27:21;1.42;;;1.33;;
1589;SDS011;788;48.720;9.158;2022-11-20T09:29:48;1.17;;;1.17;;
1589;SDS011;788;48.720;9.158;2022-11-20T09:32:15;1.40;;;1.40;;
1589;SDS011;788;48.720;9.158;2022-11-20T09:34:42;1.17;;;1.17;;
1589;SDS011;788;48.720;9.158;2022-11-20T09:37:09;1.15;;;1.10;;
1589;SDS011;788;48.720;9.158;2022-11-20T09:42:27;1.65;;;1.55;;
1589;SDS011;788;48.720;9.158;2022-11-20T09:45:11;1.30;;;0.80;;
1589;SDS011;788;48.720;9.158;2022-11-20T09:50:45;0.65;;;0.63;;
1589;SDS011;788;48.720;9.158;2022-11-20T09:53:16;1.23;;;1.13;;
1589;SDS011;788;48.720;9.158;2022-11-20T09:55:49;1.00;;;1.00;;
1589;SDS011;788;48.720;9.158;2022-11-20T09:58:21;0.98;;;0.98;;
1589;SDS011;788;48.720;9.158;2022-11-20T10:00:56;0.90;;;0.90;;
1589;SDS011;788;48.720;9.158;2022-11-20T10:03:37;1.20;;;1.10;;
1589;SDS011;788;48.720;9.158;2022-11-20T10:06:17;1.05;;;1.05;;
1589;SDS011;788;48.720;9.158;2022-11-20T10:08:53;0.98;;;0.98;;
1589;SDS011;788;48.720;9.158;2022-11-20T10:11:34;0.82;;;0.52;;
1589;SDS011;788;48.720;9.158;2022-11-20T10:14:13;0.82;;;0.80;;
1589;SDS011;788;48.720;9.158;2022-11-20T10:17:08;0.88;;;0.88;;
1589;SDS011;788;48.720;9.158;2022-11-20T10:19:46;1.27;;;1.17;;
1589;SDS011;788;48.720;9.158;2022-11-20T10:22:25;0.80;;;0.80;;
1589;SDS011;788;48.720;9.158;2022-11-20T10:25:12;1.20;;;1.10;;
1589;SDS011;788;48.720;9.158;2022-11-20T10:27:48;0.70;;;0.70;;
1589;SDS011;788;48.720;9.158;2022-11-20T10:30:35;0.90;;;0.90;;
1589;SDS011;788;48.720;9.158;2022-11-20T10:33:06;2.55;;;0.90;;
1589;SDS011;788;48.720;9.158;2022-11-20T10:35:49;1.05;;;1.05;;
1589;SDS011;788;48.720;9.158;2022-11-20T10:38:21;0.60;;;0.60;;
1589;SDS011;788;48.720;9.158;2022-11-20T10:40:52;0.93;;;0.90;;
1589;SDS011;788;48.720;9.158;2022-11-20T10:43:43;0.70;;;0.70;;
1589;SDS011;788;48.720;9.158;2022-11-20T10:46:17;0.88;;;0.88;;
1589;SDS011;788;48.720;9.158;2022-11-20T10:48:47;1.30;;;1.02;;
1589;SDS011;788;48.720;9.158;2022-11-20T10:51:17;2.05;;;1.35;;
1589;SDS011;788;48.720;9.158;2022-11-20T10:53:55;2.15;;;1.73;;
1589;SDS011;788;48.720;9.158;2022-11-20T10:56:26;1.95;;;1.60;;
1589;SDS011;788;48.720;9.158;2022-11-20T11:02:12;1.42;;;1.33;;
1589;SDS011;788;48.720;9.158;2022-11-20T11:04:43;2.15;;;1.42;;
1589;SDS011;788;48.720;9.158;2022-11-20T11:07:16;1.05;;;0.95;;
1589;SDS011;788;48.720;9.158;2022-11-20T11:09:54;1.65;;;1.55;;
1589;SDS011;788;48.720;9.158;2022-11-20T11:12:22;2.17;;;2.08;;
1589;SDS011;788;48.720;9.158;2022-11-20T11:14:51;1.75;;;1.65;;
1589;SDS011;788;48.720;9.158;2022-11-20T11:17:27;1.85;;;1.75;;
1589;SDS011;788;48.720;9.158;2022-11-20T11:19:59;2.80;;;2.10;;
1589;SDS011;788;48.720;9.158;2022-11-20T11:22:28;2.45;;;2.25;;
1589;SDS011;788;48.720;9.158;2022-11-20T11:24:56;1.13;;;1.13;;
1589;SDS011;788;48.720;9.158;2022-11-20T11:27:23;2.28;;;1.85;;
1589;SDS011;788;48.720;9.158;2022-11-20T11:30:01;1.50;;;1.40;;
1589;SDS011;788;48.720;9.158;2022-11-20T11:32:42;1.90;;;1.80;;
1589;SDS011;788;48.720;9.158;2022-11-20T11:35:20;1.92;;;1.63;;
1589;SDS011;788;48.720;9.158;2022-11-20T11:37:52;2.25;;;2.15;;
1589;SDS011;788;48.720;9.158;2022-11-20T11:40:29;1.70;;;1.60;;
1589;SDS011;788;48.720;9.158;2022-11-20T11:42:59;1.50;;;1.40;;
